Time;durP1;ratioP1;P1;durP2;ratioP2;P2;SDS_P1;SDS_P2;PMS_P1;PMS_P2;Temp;Humidity;BMP_temperature;BMP_pressure;BME280_temperature;BME280_humidity;BME280_pressure;Samples;Min_cycle;Max_cycle;Signal;HPM_P1;HPM_P2
2023/09/18 00:00:52;;;;;;;553.08;534.90;;;;;;;;;;5054200;28;20189;-95
2023/09/18 00:03:24;;;;;;;545.47;527.08;;;;;;;;;;5046775;28;20203;-94
2023/09/18 00:05:50;;;;;;;541.58;523.60;;;;;;;;;;5030205;28;20207;-94
2023/09/18 00:08:16;;;;;;;535.65;517.53;;;;;;;;;;5049408;28;20201;-92
2023/09/18 00:10:43;;;;;;;536.17;518.15;;;;;;;;;;5068979;28;20206;-93
2023/09/18 00:13:09;;;;;;;535.42;517.88;;;;;;;;;;5070101;28;20171;-94
2023/09/18 00:15:36;;;;;;;554.00;535.30;;;;;;;;;;5049948;28;20279;-95
2023/09/18 00:18:03;;;;;;;570.55;550.90;;;;;;;;;;5064473;28;20179;-94
2023/09/18 00:20:29;;;;;;;557.30;538.83;;;;;;;;;;5063725;28;20195;-94
2023/09/18 00:22:55;;;;;;;563.25;544.00;;;;;;;;;;5063568;28;20183;-95
2023/09/18 00:25:21;;;;;;;574.13;554.80;;;;;;;;;;5063168;28;20215;-95
2023/09/18 00:27:47;;;;;;;580.50;560.85;;;;;;;;;;5045458;28;20260;-95
2023/09/18 00:30:14;;;;;;;580.47;560.33;;;;;;;;;;5063392;28;20254;-95
2023/09/18 00:32:40;;;;;;;592.35;571.25;;;;;;;;;;5063875;28;20168;-94
2023/09/18 00:35:06;;;;;;;582.58;562.25;;;;;;;;;;5045310;28;20187;-93
2023/09/18 00:37:32;;;;;;;580.50;560.60;;;;;;;;;;5062598;28;20249;-94
2023/09/18 00:39:58;;;;;;;584.92;564.95;;;;;;;;;;5065160;28;20216;-94
2023/09/18 00:42:24;;;;;;;582.88;562.78;;;;;;;;;;5076457;28;20252;-94
2023/09/18 00:44:51;;;;;;;572.30;552.30;;;;;;;;;;5068403;28;20226;-94
2023/09/18 00:47:17;;;;;;;572.35;552.88;;;;;;;;;;5046016;28;20203;-95
2023/09/18 00:49:45;;;;;;;590.17;569.20;;;;;;;;;;5063999;28;20227;-94
2023/09/18 00:52:12;;;;;;;571.60;551.38;;;;;;;;;;5043623;28;20225;-94
2023/09/18 00:54:39;;;;;;;589.92;568.85;;;;;;;;;;5058241;28;20192;-93
2023/09/18 00:57:05;;;;;;;572.40;553.08;;;;;;;;;;5074329;28;20203;-94
2023/09/18 00:59:32;;;;;;;559.38;540.45;;;;;;;;;;5071313;28;20192;-95
2023/09/18 01:01:58;;;;;;;554.38;535.97;;;;;;;;;;5068335;28;20175;-94
2023/09/18 01:04:26;;;;;;;547.53;529.05;;;;;;;;;;5067078;28;20207;-95
2023/09/18 01:06:52;;;;;;;565.20;546.13;;;;;;;;;;5047500;28;20181;-94
2023/09/18 01:09:19;;;;;;;569.45;550.25;;;;;;;;;;5033816;28;20196;-94
2023/09/18 01:11:52;;;;;;;579.80;560.03;;;;;;;;;;5048191;28;20184;-95
2023/09/18 01:14:29;;;;;;;558.63;540.03;;;;;;;;;;5049561;28;20176;-94
2023/09/18 01:17:01;;;;;;;558.13;538.70;;;;;;;;;;5049693;28;20186;-94
2023/09/18 01:19:37;;;;;;;564.55;545.58;;;;;;;;;;5066972;28;20207;-95
2023/09/18 01:22:04;;;;;;;574.40;554.85;;;;;;;;;;5070843;28;20196;-95
2023/09/18 01:24:30;;;;;;;619.03;597.10;;;;;;;;;;5060478;28;20232;-93
2023/09/18 01:26:56;;;;;;;624.15;601.70;;;;;;;;;;5048399;28;20181;-95
2023/09/18 01:29:22;;;;;;;608.22;586.33;;;;;;;;;;5030077;28;20205;-94
2023/09/18 01:31:48;;;;;;;606.08;584.65;;;;;;;;;;5030236;28;20237;-95
2023/09/18 01:34:17;;;;;;;562.92;543.78;;;;;;;;;;5063873;28;20211;-93
2023/09/18 01:36:44;;;;;;;553.17;534.47;;;;;;;;;;5068114;28;20204;-94
2023/09/18 01:39:11;;;;;;;553.78;535.47;;;;;;;;;;5053918;28;20253;-94
2023/09/18 01:41:39;;;;;;;546.35;528.15;;;;;;;;;;5049519;28;20287;-94
2023/09/18 01:44:05;;;;;;;563.70;544.70;;;;;;;;;;5029901;28;20646;-93
2023/09/18 01:46:32;;;;;;;534.85;517.38;;;;;;;;;;5039916;28;20737;-94
2023/09/18 01:48:59;;;;;;;574.30;555.05;;;;;;;;;;5055000;28;20563;-95
2023/09/18 01:51:25;;;;;;;588.30;568.17;;;;;;;;;;5030651;28;20188;-94
2023/09/18 01:53:52;;;;;;;667.30;642.38;;;;;;;;;;5048090;28;20163;-94
2023/09/18 01:56:18;;;;;;;626.15;603.13;;;;;;;;;;5051266;28;20195;-94
2023/09/18 01:58:44;;;;;;;578.20;558.10;;;;;;;;;;5045430;28;20215;-95
2023/09/18 02:01:10;;;;;;;551.35;532.30;;;;;;;;;;5063371;28;20204;-95
2023/09/18 02:03:36;;;;;;;542.50;523.83;;;;;;;;;;5054987;28;20205;-95
2023/09/18 02:06:03;;;;;;;506.77;490.27;;;;;;;;;;5059218;28;20264;-93
2023/09/18 02:08:29;;;;;;;447.65;432.83;;;;;;;;;;5055698;28;20216;-93
2023/09/18 02:10:55;;;;;;;469.25;454.10;;;;;;;;;;5045193;28;20214;-94
2023/09/18 02:13:21;;;;;;;448.58;434.33;;;;;;;;;;5066337;28;20184;-96
2023/09/18 02:15:47;;;;;;;450.73;436.50;;;;;;;;;;5066733;28;20179;-95
2023/09/18 02:18:13;;;;;;;447.52;433.30;;;;;;;;;;5063548;28;20188;-95
2023/09/18 02:20:44;;;;;;;465.35;450.45;;;;;;;;;;5064187;28;20193;-95
2023/09/18 02:23:10;;;;;;;469.05;453.80;;;;;;;;;;5053637;28;20192;-96
2023/09/18 02:25:36;;;;;;;484.38;468.65;;;;;;;;;;5065649;28;20207;-95
2023/09/18 02:28:02;;;;;;;505.42;489.15;;;;;;;;;;5048518;28;20187;-96
2023/09/18 02:30:28;;;;;;;507.25;490.70;;;;;;;;;;5059549;28;20190;-96
2023/09/18 02:32:55;;;;;;;577.42;557.38;;;;;;;;;;5059878;28;20183;-96
2023/09/18 02:35:21;;;;;;;542.67;524.83;;;;;;;;;;5069178;28;20178;-93
2023/09/18 02:37:47;;;;;;;546.45;528.22;;;;;;;;;;5048049;28;20204;-94
2023/09/18 02:40:13;;;;;;;571.63;551.85;;;;;;;;;;5045745;28;20208;-95
2023/09/18 02:42:39;;;;;;;537.00;519.08;;;;;;;;;;5053465;28;20211;-92
2023/09/18 02:45:06;;;;;;;492.20;476.65;;;;;;;;;;5055532;28;20216;-94
2023/09/18 02:47:33;;;;;;;488.75;473.27;;;;;;;;;;5065582;28;20171;-95
2023/09/18 02:49:59;;;;;;;518.47;501.70;;;;;;;;;;5041234;28;20212;-94
2023/09/18 02:52:25;;;;;;;506.63;490.02;;;;;;;;;;5042980;28;20188;-95
2023/09/18 02:54:51;;;;;;;491.13;475.38;;;;;;;;;;5057142;28;20177;-95
2023/09/18 02:57:18;;;;;;;514.40;498.10;;;;;;;;;;5053256;28;20205;-94
2023/09/18 02:59:45;;;;;;;516.20;499.15;;;;;;;;;;5047404;28;20200;-94
2023/09/18 03:02:11;;;;;;;514.13;497.10;;;;;;;;;;5063084;28;20299;-92
2023/09/18 03:04:37;;;;;;;532.75;515.15;;;;;;;;;;5051459;28;20277;-95
2023/09/18 03:07:03;;;;;;;504.35;487.80;;;;;;;;;;5049212;28;20196;-94
2023/09/18 03:09:30;;;;;;;502.10;485.75;;;;;;;;;;5045898;28;20715;-93
2023/09/18 03:11:56;;;;;;;501.35;485.48;;;;;;;;;;5045807;28;20189;-95
2023/09/18 03:14:22;;;;;;;498.75;482.70;;;;;;;;;;5045891;28;20215;-95
2023/09/18 03:16:48;;;;;;;499.50;483.23;;;;;;;;;;5056020;28;20184;-94
2023/09/18 03:19:14;;;;;;;512.08;495.92;;;;;;;;;;5064233;28;20205;-96
2023/09/18 03:21:40;;;;;;;500.80;484.60;;;;;;;;;;5052376;28;20196;-95
2023/09/18 03:24:06;;;;;;;476.55;461.63;;;;;;;;;;5060995;28;20200;-93
2023/09/18 03:26:32;;;;;;;453.35;438.65;;;;;;;;;;5063151;28;20187;-95
2023/09/18 03:28:58;;;;;;;446.27;432.02;;;;;;;;;;5044482;28;20201;-95
2023/09/18 03:31:24;;;;;;;434.90;421.23;;;;;;;;;;5039078;28;20185;-94
2023/09/18 03:33:50;;;;;;;430.77;416.55;;;;;;;;;;5056222;28;20230;-96
2023/09/18 03:36:16;;;;;;;443.63;428.67;;;;;;;;;;5036862;28;20191;-95
2023/09/18 03:38:42;;;;;;;466.50;450.80;;;;;;;;;;5045184;28;20247;-94
2023/09/18 03:41:08;;;;;;;479.42;463.48;;;;;;;;;;5055968;28;20696;-93
2023/09/18 03:43:34;;;;;;;499.27;482.13;;;;;;;;;;5058373;28;20249;-94
2023/09/18 03:46:04;;;;;;;524.95;506.30;;;;;;;;;;5042025;28;20220;-92
2023/09/18 03:48:36;;;;;;;528.60;510.48;;;;;;;;;;5056181;28;20253;-93
2023/09/18 03:51:02;;;;;;;519.25;500.88;;;;;;;;;;5050416;28;20295;-93
2023/09/18 03:53:28;;;;;;;512.80;495.75;;;;;;;;;;5049163;28;20185;-93
2023/09/18 03:55:55;;;;;;;547.10;528.03;;;;;;;;;;5038762;28;20219;-92
2023/09/18 03:58:21;;;;;;;518.60;501.00;;;;;;;;;;5056972;28;20203;-93
2023/09/18 04:00:47;;;;;;;509.42;492.23;;;;;;;;;;5054139;28;20193;-93
2023/09/18 04:03:13;;;;;;;547.63;528.90;;;;;;;;;;5053381;28;20192;-93
2023/09/18 04:05:39;;;;;;;527.75;509.90;;;;;;;;;;5041248;28;20212;-92
2023/09/18 04:08:05;;;;;;;528.22;510.70;;;;;;;;;;5044507;28;20208;-93
2023/09/18 04:10:31;;;;;;;562.17;542.72;;;;;;;;;;5042585;28;20215;-94
2023/09/18 04:12:57;;;;;;;531.60;513.47;;;;;;;;;;5048673;28;20244;-93
2023/09/18 04:15:23;;;;;;;550.50;531.65;;;;;;;;;;5062806;28;20191;-93
2023/09/18 04:17:49;;;;;;;544.03;525.20;;;;;;;;;;5062681;28;20195;-93
2023/09/18 04:20:15;;;;;;;512.83;496.15;;;;;;;;;;5054743;28;20467;-94
2023/09/18 04:22:43;;;;;;;494.77;478.38;;;;;;;;;;5057689;28;20211;-92
2023/09/18 04:25:09;;;;;;;512.45;495.25;;;;;;;;;;5055628;28;20250;-94
2023/09/18 04:27:35;;;;;;;508.13;491.20;;;;;;;;;;5059437;28;20194;-92
2023/09/18 04:30:01;;;;;;;521.25;503.50;;;;;;;;;;5061221;28;20278;-94
2023/09/18 04:32:30;;;;;;;520.80;503.15;;;;;;;;;;5059305;28;20542;-93
2023/09/18 04:34:57;;;;;;;535.97;517.55;;;;;;;;;;5051921;28;20187;-94
2023/09/18 04:37:23;;;;;;;540.03;521.55;;;;;;;;;;5057695;28;20193;-93
2023/09/18 04:39:49;;;;;;;520.17;502.80;;;;;;;;;;5042744;28;20703;-93
2023/09/18 04:42:15;;;;;;;512.95;495.70;;;;;;;;;;5058103;28;20220;-93
2023/09/18 04:44:41;;;;;;;519.47;501.48;;;;;;;;;;5051333;28;20215;-93
2023/09/18 04:47:07;;;;;;;533.95;515.95;;;;;;;;;;5053059;28;20177;-93
2023/09/18 04:49:34;;;;;;;519.08;501.65;;;;;;;;;;5057571;28;20395;-95
2023/09/18 04:52:00;;;;;;;606.00;584.20;;;;;;;;;;5061841;28;20182;-92
2023/09/18 04:54:26;;;;;;;576.22;556.25;;;;;;;;;;5058910;28;20245;-93
2023/09/18 04:56:52;;;;;;;576.75;556.30;;;;;;;;;;5047582;28;20184;-94
2023/09/18 04:59:18;;;;;;;585.13;564.42;;;;;;;;;;5051413;28;20569;-91
2023/09/18 05:01:44;;;;;;;576.95;556.53;;;;;;;;;;5053278;28;20192;-91
2023/09/18 05:04:11;;;;;;;595.35;574.28;;;;;;;;;;5030428;28;20253;-92
2023/09/18 05:06:38;;;;;;;584.42;563.60;;;;;;;;;;5050421;28;20285;-93
2023/09/18 05:09:05;;;;;;;546.08;527.38;;;;;;;;;;5057009;28;20212;-92
2023/09/18 05:11:31;;;;;;;540.63;522.10;;;;;;;;;;5051265;28;20172;-92
2023/09/18 05:13:57;;;;;;;522.60;505.38;;;;;;;;;;5057348;28;20236;-94
2023/09/18 05:16:23;;;;;;;547.05;528.00;;;;;;;;;;5062140;28;20192;-93
2023/09/18 05:18:49;;;;;;;621.38;598.25;;;;;;;;;;5059311;28;20196;-92
2023/09/18 05:21:16;;;;;;;635.70;612.47;;;;;;;;;;5051792;28;20189;-92
2023/09/18 05:23:42;;;;;;;635.28;611.75;;;;;;;;;;5041877;28;20635;-92
2023/09/18 05:26:08;;;;;;;581.92;561.35;;;;;;;;;;5051676;28;20246;-92
2023/09/18 05:28:34;;;;;;;588.15;567.00;;;;;;;;;;5051579;28;20260;-93
2023/09/18 05:31:00;;;;;;;608.20;586.30;;;;;;;;;;5042710;28;20352;-96
2023/09/18 05:33:26;;;;;;;604.70;583.08;;;;;;;;;;5046787;28;20257;-94
2023/09/18 05:35:53;;;;;;;581.65;560.92;;;;;;;;;;5073932;28;20228;-96
2023/09/18 05:38:19;;;;;;;575.03;554.85;;;;;;;;;;5064026;28;20215;-96
2023/09/18 05:40:46;;;;;;;560.10;540.72;;;;;;;;;;5065805;28;20189;-95
2023/09/18 05:43:12;;;;;;;575.40;555.47;;;;;;;;;;5074544;28;20242;-95
2023/09/18 05:45:39;;;;;;;572.58;552.67;;;;;;;;;;5059654;28;20212;-95
2023/09/18 05:48:05;;;;;;;575.42;555.38;;;;;;;;;;5058222;28;20174;-95
2023/09/18 05:50:33;;;;;;;575.65;555.45;;;;;;;;;;5064640;28;20189;-95
2023/09/18 05:53:00;;;;;;;587.97;567.30;;;;;;;;;;5057989;28;20196;-95
2023/09/18 05:55:29;;;;;;;591.45;570.20;;;;;;;;;;5054276;28;20205;-95
2023/09/18 05:57:55;;;;;;;595.25;574.10;;;;;;;;;;5053504;28;20189;-93
2023/09/18 06:00:21;;;;;;;594.95;573.70;;;;;;;;;;5060118;28;20285;-93
2023/09/18 06:02:48;;;;;;;599.72;578.05;;;;;;;;;;5046032;28;20160;-96
2023/09/18 06:05:15;;;;;;;625.17;602.42;;;;;;;;;;5040274;28;20304;-94
2023/09/18 06:07:42;;;;;;;609.72;587.50;;;;;;;;;;5034702;28;20237;-94
2023/09/18 06:10:08;;;;;;;567.25;547.42;;;;;;;;;;5054508;28;20208;-94
2023/09/18 06:12:34;;;;;;;586.33;565.42;;;;;;;;;;5036133;28;20238;-95
2023/09/18 06:15:00;;;;;;;600.83;578.83;;;;;;;;;;5051246;28;20257;-94
2023/09/18 06:17:26;;;;;;;603.85;582.00;;;;;;;;;;5046317;28;20196;-93
2023/09/18 06:19:52;;;;;;;584.83;564.53;;;;;;;;;;5044802;28;20282;-91
2023/09/18 06:22:18;;;;;;;562.63;543.03;;;;;;;;;;5059225;28;20714;-92
2023/09/18 06:24:44;;;;;;;535.50;517.28;;;;;;;;;;5059233;28;20206;-90
2023/09/18 06:27:11;;;;;;;538.88;521.05;;;;;;;;;;5051651;28;20180;-92
2023/09/18 06:29:42;;;;;;;528.40;510.27;;;;;;;;;;5054736;28;20202;-92
2023/09/18 06:32:08;;;;;;;504.98;488.55;;;;;;;;;;5060167;28;20413;-95
2023/09/18 06:34:34;;;;;;;521.72;504.33;;;;;;;;;;5066230;28;20195;-95
2023/09/18 06:37:00;;;;;;;550.45;531.13;;;;;;;;;;5064604;28;20259;-95
2023/09/18 06:39:26;;;;;;;534.85;516.85;;;;;;;;;;5058640;28;20295;-95
2023/09/18 06:41:52;;;;;;;514.92;498.13;;;;;;;;;;5054305;28;20186;-93
2023/09/18 06:44:18;;;;;;;512.45;495.73;;;;;;;;;;5064599;28;20210;-95
2023/09/18 06:46:44;;;;;;;500.08;483.58;;;;;;;;;;5063747;28;20192;-92
2023/09/18 06:49:10;;;;;;;490.30;474.35;;;;;;;;;;5047365;28;20262;-96
2023/09/18 06:51:36;;;;;;;492.42;476.95;;;;;;;;;;5063740;28;20181;-93
2023/09/18 06:54:02;;;;;;;492.73;476.48;;;;;;;;;;5065951;28;20183;-96
2023/09/18 06:56:29;;;;;;;490.42;474.70;;;;;;;;;;5065659;28;20681;-93
2023/09/18 06:58:55;;;;;;;475.77;460.67;;;;;;;;;;5070842;28;20215;-96
2023/09/18 07:01:22;;;;;;;498.33;481.90;;;;;;;;;;5048018;28;20204;-94
2023/09/18 07:03:48;;;;;;;468.88;454.05;;;;;;;;;;5065320;28;20177;-95
2023/09/18 07:06:21;;;;;;;491.95;475.67;;;;;;;;;;5062575;28;20264;-95
2023/09/18 07:08:53;;;;;;;507.70;489.63;;;;;;;;;;5050489;28;20234;-94
2023/09/18 07:11:19;;;;;;;500.77;483.88;;;;;;;;;;5065070;28;20177;-95
2023/09/18 07:13:45;;;;;;;544.08;525.58;;;;;;;;;;5054317;28;20192;-94
2023/09/18 07:16:11;;;;;;;465.77;450.52;;;;;;;;;;5037595;28;20244;-94
2023/09/18 07:18:38;;;;;;;414.73;401.70;;;;;;;;;;5047188;28;20540;-94
2023/09/18 07:21:04;;;;;;;431.80;418.30;;;;;;;;;;5047833;28;20216;-94
2023/09/18 07:23:30;;;;;;;474.70;459.70;;;;;;;;;;5062736;28;20192;-94
2023/09/18 07:25:57;;;;;;;459.23;444.88;;;;;;;;;;5049187;28;20480;-94
2023/09/18 07:28:25;;;;;;;453.15;439.17;;;;;;;;;;5062528;28;20228;-95
2023/09/18 07:30:51;;;;;;;425.95;412.90;;;;;;;;;;5060712;28;20184;-96
2023/09/18 07:33:19;;;;;;;432.98;419.23;;;;;;;;;;5055709;28;20672;-95
2023/09/18 07:35:48;;;;;;;434.50;421.33;;;;;;;;;;5043518;28;20668;-95
2023/09/18 07:38:15;;;;;;;426.05;413.00;;;;;;;;;;5035665;28;21031;-95
2023/09/18 07:40:41;;;;;;;436.98;423.50;;;;;;;;;;5051788;28;20206;-95
2023/09/18 07:43:07;;;;;;;447.02;432.55;;;;;;;;;;5042567;28;20223;-93
2023/09/18 07:45:34;;;;;;;409.17;396.80;;;;;;;;;;5061490;28;20214;-94
2023/09/18 07:48:00;;;;;;;369.35;358.23;;;;;;;;;;5046971;28;20185;-94
2023/09/18 07:50:27;;;;;;;354.58;343.85;;;;;;;;;;5058529;28;20180;-96
2023/09/18 07:52:53;;;;;;;339.02;328.70;;;;;;;;;;5062329;28;20184;-95
2023/09/18 07:55:19;;;;;;;400.70;387.83;;;;;;;;;;5046599;28;20238;-95
2023/09/18 07:57:45;;;;;;;339.10;329.13;;;;;;;;;;5063312;28;20557;-96
2023/09/18 08:00:12;;;;;;;354.38;343.85;;;;;;;;;;5045348;28;20303;-95
2023/09/18 08:02:39;;;;;;;366.88;356.00;;;;;;;;;;5064214;28;20195;-95
2023/09/18 08:05:05;;;;;;;346.98;336.35;;;;;;;;;;5056576;28;20203;-95
2023/09/18 08:07:32;;;;;;;377.35;366.33;;;;;;;;;;5049875;28;20181;-96
2023/09/18 08:09:58;;;;;;;357.67;347.05;;;;;;;;;;5065794;28;20200;-94
2023/09/18 08:12:24;;;;;;;359.40;348.77;;;;;;;;;;5058453;28;20193;-96
2023/09/18 08:14:50;;;;;;;335.02;325.38;;;;;;;;;;5058676;28;20258;-95
2023/09/18 08:17:16;;;;;;;405.10;392.73;;;;;;;;;;5048649;28;20218;-96
2023/09/18 08:19:44;;;;;;;369.33;358.38;;;;;;;;;;5051334;28;20211;-94
2023/09/18 08:22:15;;;;;;;355.92;345.48;;;;;;;;;;5040627;28;20189;-95
2023/09/18 08:24:41;;;;;;;354.17;343.63;;;;;;;;;;5054918;28;20192;-95
2023/09/18 08:27:07;;;;;;;388.73;377.15;;;;;;;;;;5045551;28;20218;-95
2023/09/18 08:29:33;;;;;;;382.42;371.08;;;;;;;;;;5061540;28;20208;-96
2023/09/18 08:31:59;;;;;;;365.27;354.63;;;;;;;;;;5059487;28;20191;-94
2023/09/18 08:34:26;;;;;;;373.02;362.13;;;;;;;;;;5051622;28;20212;-95
2023/09/18 08:36:52;;;;;;;365.38;354.38;;;;;;;;;;5033714;28;20193;-95
2023/09/18 08:39:18;;;;;;;376.58;365.40;;;;;;;;;;5062379;28;20204;-94
2023/09/18 08:41:45;;;;;;;373.73;362.83;;;;;;;;;;5062226;28;20192;-94
2023/09/18 08:44:11;;;;;;;398.52;386.40;;;;;;;;;;5061352;28;20210;-95
2023/09/18 08:46:37;;;;;;;371.90;360.98;;;;;;;;;;5051674;28;20176;-94
2023/09/18 08:49:04;;;;;;;378.33;366.95;;;;;;;;;;5060241;28;20273;-95
2023/09/18 08:51:31;;;;;;;393.20;381.67;;;;;;;;;;5056978;28;20188;-95
2023/09/18 08:53:57;;;;;;;395.98;383.92;;;;;;;;;;5026192;28;20273;-95
2023/09/18 08:56:23;;;;;;;392.25;380.63;;;;;;;;;;5059138;28;20192;-95
2023/09/18 08:58:50;;;;;;;376.40;365.20;;;;;;;;;;5059869;28;20598;-95
2023/09/18 09:01:16;;;;;;;407.05;394.63;;;;;;;;;;5054058;28;20188;-93
2023/09/18 09:03:42;;;;;;;396.67;384.10;;;;;;;;;;5055558;28;20192;-96
2023/09/18 09:06:09;;;;;;;406.23;393.75;;;;;;;;;;5027619;28;20196;-95
2023/09/18 09:08:35;;;;;;;413.23;400.60;;;;;;;;;;5062689;28;20204;-95
2023/09/18 09:11:02;;;;;;;390.63;379.08;;;;;;;;;;5045902;28;20277;-96
2023/09/18 09:13:28;;;;;;;413.77;401.38;;;;;;;;;;5062622;28;20180;-95
2023/09/18 09:15:55;;;;;;;407.40;395.02;;;;;;;;;;5064949;28;20189;-96
2023/09/18 09:18:22;;;;;;;418.95;406.00;;;;;;;;;;5066361;28;20194;-96
2023/09/18 09:21:01;;;;;;;439.42;425.83;;;;;;;;;;5061899;28;20194;-96
2023/09/18 09:23:31;;;;;;;455.30;440.90;;;;;;;;;;5037526;28;20207;-95
2023/09/18 09:26:13;;;;;;;466.02;451.52;;;;;;;;;;5065168;28;20229;-94
2023/09/18 09:28:40;;;;;;;454.00;439.95;;;;;;;;;;5061004;28;20226;-95
2023/09/18 09:31:06;;;;;;;458.30;444.10;;;;;;;;;;5062633;28;20216;-94
2023/09/18 09:33:32;;;;;;;482.63;467.48;;;;;;;;;;5043926;28;20194;-95
2023/09/18 09:35:59;;;;;;;488.58;473.17;;;;;;;;;;5057283;28;20228;-96
2023/09/18 09:38:34;;;;;;;530.33;512.90;;;;;;;;;;5060196;28;20223;-96
2023/09/18 09:41:09;;;;;;;545.47;527.70;;;;;;;;;;5062144;28;20190;-95
2023/09/18 09:43:36;;;;;;;530.58;513.30;;;;;;;;;;5047703;28;20192;-94
2023/09/18 09:46:03;;;;;;;551.88;533.55;;;;;;;;;;5039206;28;20749;-95
2023/09/18 09:48:32;;;;;;;546.45;528.22;;;;;;;;;;5049422;28;20277;-94
2023/09/18 09:51:00;;;;;;;540.08;522.40;;;;;;;;;;5044511;28;20185;-95
2023/09/18 09:53:46;;;;;;;608.38;587.45;;;;;;;;;;5059195;28;20804;-94
2023/09/18 09:56:13;;;;;;;593.03;572.67;;;;;;;;;;5058574;28;20186;-94
2023/09/18 09:58:43;;;;;;;577.20;557.97;;;;;;;;;;5044066;28;20212;-94
2023/09/18 10:01:10;;;;;;;597.50;576.97;;;;;;;;;;5062054;28;20206;-94
2023/09/18 10:03:39;;;;;;;588.22;567.58;;;;;;;;;;5058108;28;20554;-94
2023/09/18 10:06:06;;;;;;;600.00;578.70;;;;;;;;;;5041406;28;20261;-95
2023/09/18 10:08:32;;;;;;;522.63;505.42;;;;;;;;;;5060528;28;20267;-94
2023/09/18 10:11:18;;;;;;;568.30;549.10;;;;;;;;;;5054821;28;20180;-95
2023/09/18 10:13:54;;;;;;;565.20;546.10;;;;;;;;;;5059520;28;20211;-95
2023/09/18 10:16:25;;;;;;;506.30;489.58;;;;;;;;;;5043426;28;20180;-94
2023/09/18 10:19:10;;;;;;;525.05;508.08;;;;;;;;;;5063048;28;20234;-95
2023/09/18 10:21:58;;;;;;;463.70;448.92;;;;;;;;;;5044446;28;20190;-95
2023/09/18 10:24:30;;;;;;;423.33;410.60;;;;;;;;;;5050515;28;20209;-93
2023/09/18 10:26:56;;;;;;;477.35;461.73;;;;;;;;;;5060777;28;20177;-95
2023/09/18 10:29:26;;;;;;;473.77;458.92;;;;;;;;;;5034219;28;20285;-93
2023/09/18 10:31:55;;;;;;;473.27;458.52;;;;;;;;;;5061555;28;20176;-94
2023/09/18 10:34:22;;;;;;;473.33;458.67;;;;;;;;;;5036102;28;20192;-93
2023/09/18 10:36:49;;;;;;;519.50;502.45;;;;;;;;;;5053519;28;20290;-94
2023/09/18 10:39:19;;;;;;;493.02;477.20;;;;;;;;;;5061460;28;20197;-95
2023/09/18 10:41:47;;;;;;;543.15;523.80;;;;;;;;;;5044434;28;20187;-93
2023/09/18 10:44:14;;;;;;;482.58;466.88;;;;;;;;;;5056671;28;20765;-95
2023/09/18 10:46:40;;;;;;;473.27;458.45;;;;;;;;;;5053454;28;20183;-94
2023/09/18 10:49:06;;;;;;;487.98;472.20;;;;;;;;;;5053011;28;20208;-92
2023/09/18 10:51:37;;;;;;;501.10;485.10;;;;;;;;;;5052536;28;20317;-95
2023/09/18 10:54:04;;;;;;;472.38;457.08;;;;;;;;;;5044681;28;20181;-92
2023/09/18 10:56:31;;;;;;;532.78;514.03;;;;;;;;;;5049521;28;20725;-94
2023/09/18 10:59:01;;;;;;;542.08;522.15;;;;;;;;;;5058562;28;20250;-94
2023/09/18 11:01:30;;;;;;;470.35;455.40;;;;;;;;;;5053214;28;20207;-92
2023/09/18 11:04:01;;;;;;;418.65;405.52;;;;;;;;;;5058128;28;20681;-93
2023/09/18 11:06:27;;;;;;;385.30;373.40;;;;;;;;;;5057130;28;20212;-95
2023/09/18 11:09:14;;;;;;;403.42;391.02;;;;;;;;;;5056214;28;20204;-94
2023/09/18 11:11:40;;;;;;;381.00;369.35;;;;;;;;;;5054878;28;20248;-93
2023/09/18 11:14:11;;;;;;;399.73;387.85;;;;;;;;;;5058020;28;20188;-93
2023/09/18 11:16:38;;;;;;;422.30;408.73;;;;;;;;;;5058298;28;20260;-94
2023/09/18 11:19:05;;;;;;;369.85;358.98;;;;;;;;;;5058982;28;20207;-94
2023/09/18 11:21:32;;;;;;;533.83;513.67;;;;;;;;;;5058334;28;20271;-94
2023/09/18 11:24:01;;;;;;;418.15;405.63;;;;;;;;;;5055916;28;20375;-94
2023/09/18 11:26:34;;;;;;;435.02;421.52;;;;;;;;;;5059300;28;20211;-93
2023/09/18 11:29:04;;;;;;;432.67;419.30;;;;;;;;;;5054571;28;20659;-93
2023/09/18 11:31:46;;;;;;;414.63;402.17;;;;;;;;;;5043651;28;20173;-93
2023/09/18 11:34:34;;;;;;;501.42;485.27;;;;;;;;;;5051721;28;20181;-94
2023/09/18 11:37:03;;;;;;;471.40;456.38;;;;;;;;;;5046325;28;20187;-94
2023/09/18 11:39:36;;;;;;;496.30;480.23;;;;;;;;;;5058840;28;20204;-95
2023/09/18 11:42:34;;;;;;;523.53;506.92;;;;;;;;;;5052938;28;20184;-94
2023/09/18 11:45:01;;;;;;;555.17;536.97;;;;;;;;;;4990938;28;20477;-94
2023/09/18 11:47:28;;;;;;;590.30;570.53;;;;;;;;;;5038820;28;20192;-94
2023/09/18 11:49:58;;;;;;;600.70;579.20;;;;;;;;;;5054174;28;20193;-94
2023/09/18 11:52:28;;;;;;;580.72;561.30;;;;;;;;;;5037377;28;20184;-92
2023/09/18 11:54:56;;;;;;;578.47;558.92;;;;;;;;;;5051795;28;20258;-88
2023/09/18 11:57:23;;;;;;;599.13;577.70;;;;;;;;;;5056817;28;20584;-86
2023/09/18 11:59:50;;;;;;;585.97;566.05;;;;;;;;;;5056791;28;20231;-86
2023/09/18 12:02:34;;;;;;;572.92;552.83;;;;;;;;;;5057633;28;20188;-94
2023/09/18 12:05:05;;;;;;;568.83;549.78;;;;;;;;;;5044151;28;20231;-93
2023/09/18 12:07:32;;;;;;;609.50;588.17;;;;;;;;;;5038836;28;20200;-94
2023/09/18 12:09:59;;;;;;;605.20;584.47;;;;;;;;;;5038490;28;20200;-93
2023/09/18 12:12:25;;;;;;;613.10;591.85;;;;;;;;;;5058812;28;20180;-95
2023/09/18 12:14:52;;;;;;;623.58;602.03;;;;;;;;;;5032933;28;20218;-93
2023/09/18 12:17:19;;;;;;;632.78;610.67;;;;;;;;;;5050587;28;20239;-93
2023/09/18 12:19:52;;;;;;;649.22;625.70;;;;;;;;;;5058636;28;20208;-95
2023/09/18 12:22:24;;;;;;;693.25;666.50;;;;;;;;;;5059136;28;20183;-95
2023/09/18 12:24:50;;;;;;;668.30;643.53;;;;;;;;;;5052651;28;20204;-94
2023/09/18 12:27:16;;;;;;;681.00;655.63;;;;;;;;;;5051737;28;20185;-93
2023/09/18 12:29:43;;;;;;;679.50;654.33;;;;;;;;;;5060184;28;20395;-94
2023/09/18 12:32:13;;;;;;;678.25;652.83;;;;;;;;;;5058594;28;20202;-93
2023/09/18 12:34:41;;;;;;;687.15;660.53;;;;;;;;;;5049853;28;20184;-93
2023/09/18 12:37:12;;;;;;;668.72;644.35;;;;;;;;;;5050027;28;20184;-95
2023/09/18 12:39:38;;;;;;;667.35;642.85;;;;;;;;;;5036561;28;20216;-93
2023/09/18 12:42:04;;;;;;;698.63;672.17;;;;;;;;;;5052001;28;20584;-93
2023/09/18 12:44:31;;;;;;;702.47;675.53;;;;;;;;;;5057207;28;20697;-93
2023/09/18 12:46:57;;;;;;;711.67;683.90;;;;;;;;;;5061346;28;20176;-94
2023/09/18 12:49:25;;;;;;;1999.90;999.90;;;;;;;;;;5036287;28;20200;-93
2023/09/18 12:51:55;;;;;;;1999.90;999.90;;;;;;;;;;5056692;28;20543;-94
2023/09/18 12:54:21;;;;;;;1999.90;999.90;;;;;;;;;;5062379;28;20323;-94
2023/09/18 12:56:47;;;;;;;1999.90;999.90;;;;;;;;;;5061697;28;20219;-94
2023/09/18 12:59:14;;;;;;;1999.90;999.90;;;;;;;;;;5050420;28;20198;-94
2023/09/18 13:01:41;;;;;;;1999.90;999.90;;;;;;;;;;5057066;28;20192;-92
2023/09/18 13:04:07;;;;;;;1999.90;999.90;;;;;;;;;;5041973;28;20196;-93
2023/09/18 13:06:33;;;;;;;1999.90;999.90;;;;;;;;;;5059623;28;20295;-92
2023/09/18 13:09:19;;;;;;;1999.90;999.90;;;;;;;;;;5043819;28;20284;-93
2023/09/18 13:11:57;;;;;;;1999.90;999.90;;;;;;;;;;5046362;28;20172;-94
2023/09/18 13:14:24;;;;;;;1999.90;999.90;;;;;;;;;;5054941;28;20246;-93
2023/09/18 13:16:50;;;;;;;1999.90;999.90;;;;;;;;;;5052665;28;20220;-95
2023/09/18 13:19:16;;;;;;;1999.90;999.90;;;;;;;;;;5052268;28;20207;-94
2023/09/18 13:21:51;;;;;;;1999.90;999.90;;;;;;;;;;5060287;28;20184;-93
2023/09/18 13:24:30;;;;;;;1999.90;999.90;;;;;;;;;;5057221;28;20172;-94
2023/09/18 13:26:56;;;;;;;1999.90;999.90;;;;;;;;;;5065339;28;20168;-95
2023/09/18 13:29:23;;;;;;;1999.90;999.90;;;;;;;;;;5071857;28;20200;-95
2023/09/18 13:31:49;;;;;;;1999.90;999.90;;;;;;;;;;5077544;28;20192;-95
2023/09/18 13:34:18;;;;;;;1999.90;999.90;;;;;;;;;;5055513;28;20550;-94
2023/09/18 13:36:47;;;;;;;1999.90;999.90;;;;;;;;;;5051841;28;20177;-96
2023/09/18 13:39:16;;;;;;;1999.90;999.90;;;;;;;;;;5060153;28;20238;-95
2023/09/18 13:41:43;;;;;;;1999.90;999.90;;;;;;;;;;5054966;28;20180;-95
2023/09/18 13:44:09;;;;;;;1999.90;999.90;;;;;;;;;;5070525;28;20192;-94
2023/09/18 13:46:36;;;;;;;1999.90;999.90;;;;;;;;;;5054427;28;20197;-95
2023/09/18 13:49:05;;;;;;;1999.90;999.90;;;;;;;;;;5047667;28;20204;-95
2023/09/18 13:51:34;;;;;;;1999.90;999.90;;;;;;;;;;5025990;28;20189;-95
2023/09/18 13:54:00;;;;;;;1999.90;999.90;;;;;;;;;;5043106;28;20260;-95